Terminal Aerodrome Forecast
Issued by NWS

Home | Current Version | Previous Version | Text Only | Print | Product List | Glossary On
Versions: 1 2 3 4 5 6 7 8 9 10 11 12 13 14 15 16 17 18 19 20
516
FTUS46 KLOX 221122
TAFPMD
TAF
KPMD 221122Z 2212/2312 24012KT P6SM SKC
     FM221500 24015G25KT P6SM SKC
     FM221900 25022G32KT 6SM BLDU SKC
     FM222200 25028G38KT 6SM BLDU SCT120
     FM230200 26020G30KT P6SM VCSH SCT080
     FM230600 27015G25KT P6SM VCSH SCT080=

USA.gov is the U.S. government's official web portal to all federal, state and local government web resources and services.